createdAt,value
2024-01-24T00:00:39.461Z,100.00
2024-01-24T00:03:06.187Z,100.00
2024-01-24T00:05:32.899Z,100.00
2024-01-24T00:07:59.610Z,100.00
2024-01-24T00:10:26.150Z,100.00
2024-01-24T00:12:52.824Z,100.00
2024-01-24T00:15:19.588Z,100.00
2024-01-24T00:17:46.269Z,100.00
2024-01-24T00:20:14.013Z,100.00
2024-01-24T00:22:40.634Z,100.00
2024-01-24T00:25:07.492Z,100.00
2024-01-24T00:27:34.021Z,100.00
2024-01-24T00:30:00.742Z,100.00
2024-01-24T00:32:27.441Z,100.00
2024-01-24T00:34:54.159Z,100.00
2024-01-24T00:37:20.751Z,100.00
2024-01-24T00:39:48.770Z,100.00
2024-01-24T00:42:15.592Z,100.00
2024-01-24T00:44:44.466Z,100.00
2024-01-24T00:47:11.007Z,100.00
2024-01-24T00:49:37.935Z,100.00
2024-01-24T00:52:05.060Z,100.00
2024-01-24T00:54:31.678Z,100.00
2024-01-24T00:56:58.207Z,100.00
2024-01-24T00:59:24.756Z,100.00
2024-01-24T01:01:51.332Z,100.00
2024-01-24T01:04:17.959Z,100.00
2024-01-24T01:06:44.745Z,100.00
2024-01-24T01:09:11.964Z,100.00
2024-01-24T01:11:39.751Z,100.00
2024-01-24T01:14:06.353Z,100.00
2024-01-24T01:16:32.997Z,100.00
2024-01-24T01:19:00.146Z,100.00
2024-01-24T01:21:26.807Z,100.00
2024-01-24T01:23:53.404Z,100.00
2024-01-24T01:26:20.156Z,100.00
2024-01-24T01:28:46.737Z,100.00
2024-01-24T01:31:13.302Z,100.00
2024-01-24T01:33:39.912Z,100.00
2024-01-24T01:36:17.234Z,100.00
2024-01-24T01:38:49.147Z,100.00
2024-01-24T01:41:15.684Z,100.00
2024-01-24T01:43:42.181Z,100.00
2024-01-24T01:46:12.534Z,100.00
2024-01-24T01:48:39.681Z,100.00
2024-01-24T01:51:07.263Z,100.00
2024-01-24T01:53:39.627Z,100.00
2024-01-24T01:56:10.256Z,100.00
2024-01-24T01:58:38.493Z,100.00
2024-01-24T02:01:07.231Z,100.00
2024-01-24T02:03:34.421Z,100.00
2024-01-24T02:06:04.482Z,100.00
2024-01-24T02:08:33.611Z,100.00
2024-01-24T02:11:00.359Z,100.00
2024-01-24T02:13:33.820Z,100.00
2024-01-24T02:16:00.993Z,100.00
2024-01-24T02:18:27.941Z,100.00
2024-01-24T02:20:55.127Z,100.00
2024-01-24T02:23:26.818Z,100.00
2024-01-24T02:25:54.305Z,100.00
2024-01-24T02:28:21.229Z,100.00
2024-01-24T02:30:47.848Z,100.00
2024-01-24T02:33:16.991Z,100.00
2024-01-24T02:35:43.827Z,100.00
2024-01-24T02:38:10.419Z,100.00
2024-01-24T02:40:37.013Z,100.00
2024-01-24T02:43:03.964Z,100.00
2024-01-24T02:45:30.565Z,100.00
2024-01-24T02:47:57.236Z,100.00
2024-01-24T02:50:23.965Z,100.00
2024-01-24T02:52:50.548Z,100.00
2024-01-24T02:55:17.220Z,100.00
2024-01-24T02:57:45.110Z,100.00
2024-01-24T03:00:14.335Z,100.00
2024-01-24T03:02:41.201Z,100.00
2024-01-24T03:05:10.527Z,100.00
2024-01-24T03:07:38.322Z,100.00
2024-01-24T03:10:05.852Z,100.00
2024-01-24T03:12:32.516Z,100.00
2024-01-24T03:14:59.281Z,100.00
2024-01-24T03:17:25.853Z,100.00
2024-01-24T03:19:52.580Z,100.00
2024-01-24T03:22:19.681Z,100.00
2024-01-24T03:24:46.271Z,100.00
2024-01-24T03:27:13.045Z,100.00
2024-01-24T03:29:42.138Z,100.00
2024-01-24T03:32:08.767Z,100.00
2024-01-24T03:34:35.741Z,100.00
2024-01-24T03:37:02.329Z,100.00
2024-01-24T03:39:29.481Z,100.00
2024-01-24T03:41:56.150Z,100.00
2024-01-24T03:44:22.699Z,100.00
2024-01-24T03:46:49.349Z,100.00
2024-01-24T03:49:16.493Z,100.00
2024-01-24T03:51:44.313Z,100.00
2024-01-24T03:54:10.925Z,100.00
2024-01-24T03:56:37.448Z,100.00
2024-01-24T03:59:04.001Z,100.00
2024-01-24T04:01:30.619Z,100.00
2024-01-24T04:03:57.309Z,100.00
2024-01-24T04:06:24.017Z,100.00
2024-01-24T04:08:50.674Z,100.00
2024-01-24T04:11:17.184Z,100.00
2024-01-24T04:13:44.176Z,100.00
2024-01-24T04:16:10.876Z,100.00
2024-01-24T04:18:38.627Z,100.00
2024-01-24T04:21:05.443Z,100.00
2024-01-24T04:23:31.984Z,100.00
2024-01-24T04:25:58.631Z,100.00
2024-01-24T04:28:25.215Z,100.00
2024-01-24T04:30:51.766Z,100.00
2024-01-24T04:33:18.450Z,100.00
2024-01-24T04:35:45.062Z,100.00
2024-01-24T04:38:11.611Z,100.00
2024-01-24T04:40:38.148Z,100.00
2024-01-24T04:43:05.084Z,100.00
2024-01-24T04:45:31.960Z,100.00
2024-01-24T04:47:58.995Z,100.00
2024-01-24T04:50:25.836Z,100.00
2024-01-24T04:52:52.623Z,100.00
2024-01-24T04:55:19.198Z,100.00
2024-01-24T04:57:45.858Z,100.00
2024-01-24T05:00:13.568Z,100.00
2024-01-24T05:02:40.633Z,100.00
2024-01-24T05:05:08.258Z,100.00
2024-01-24T05:07:36.108Z,100.00
2024-01-24T05:10:04.879Z,100.00
2024-01-24T05:12:32.800Z,100.00
2024-01-24T05:14:59.490Z,100.00
2024-01-24T05:17:26.038Z,100.00
2024-01-24T05:19:52.601Z,100.00
2024-01-24T05:22:19.315Z,100.00
2024-01-24T05:24:47.106Z,100.00
2024-01-24T05:27:14.188Z,100.00
2024-01-24T05:29:40.845Z,100.00
2024-01-24T05:32:07.968Z,100.00
2024-01-24T05:34:35.513Z,100.00
2024-01-24T05:37:02.265Z,100.00
2024-01-24T05:39:28.811Z,100.00
2024-01-24T05:41:55.491Z,100.00
2024-01-24T05:44:22.410Z,100.00
2024-01-24T05:46:49.049Z,100.00
2024-01-24T05:49:15.761Z,100.00
2024-01-24T05:51:43.722Z,100.00
2024-01-24T05:54:10.805Z,100.00
2024-01-24T05:56:37.433Z,100.00
2024-01-24T05:59:04.050Z,100.00
2024-01-24T06:01:30.778Z,100.00
2024-01-24T06:03:57.552Z,100.00
2024-01-24T06:06:24.485Z,100.00
2024-01-24T06:08:51.144Z,100.00
2024-01-24T06:11:18.816Z,100.00
2024-01-24T06:13:45.501Z,100.00
2024-01-24T06:16:12.062Z,100.00
2024-01-24T06:18:38.781Z,100.00
2024-01-24T06:21:05.592Z,100.00
2024-01-24T06:23:32.176Z,100.00
2024-01-24T06:25:58.826Z,100.00
2024-01-24T06:28:25.423Z,100.00
2024-01-24T06:30:53.017Z,100.00
2024-01-24T06:33:20.126Z,100.00
2024-01-24T06:35:46.719Z,100.00
2024-01-24T06:38:14.068Z,100.00
2024-01-24T06:40:40.706Z,100.00
2024-01-24T06:43:07.477Z,100.00
2024-01-24T06:45:34.079Z,100.00
2024-01-24T06:48:00.801Z,100.00
2024-01-24T06:50:27.336Z,100.00
2024-01-24T06:52:55.090Z,100.00
2024-01-24T06:55:22.176Z,100.00
2024-01-24T06:57:48.893Z,100.00
2024-01-24T07:00:16.087Z,100.00
2024-01-24T07:02:42.653Z,100.00
2024-01-24T07:05:09.549Z,100.00
2024-01-24T07:07:38.706Z,100.00
2024-01-24T07:10:05.999Z,100.00
2024-01-24T07:12:32.724Z,100.00
2024-01-24T07:14:59.265Z,100.00
2024-01-24T07:17:25.981Z,100.00
2024-01-24T07:19:52.830Z,100.00
2024-01-24T07:22:19.478Z,100.00
2024-01-24T07:24:46.234Z,100.00
2024-01-24T07:27:12.887Z,100.00
2024-01-24T07:29:39.858Z,100.00
2024-01-24T07:32:07.021Z,100.00
2024-01-24T07:34:33.805Z,100.00
2024-01-24T07:37:00.861Z,100.00
2024-01-24T07:39:29.601Z,100.00
2024-01-24T07:41:57.292Z,100.00
2024-01-24T07:44:24.282Z,99.56
2024-01-24T07:46:50.864Z,99.43
2024-01-24T07:49:18.722Z,99.78
2024-01-24T07:51:47.924Z,100.00
2024-01-24T07:54:15.062Z,100.00
2024-01-24T07:56:41.848Z,99.02
2024-01-24T07:59:09.432Z,97.67
2024-01-24T08:01:37.293Z,97.68
2024-01-24T08:04:04.644Z,98.58
2024-01-24T08:06:31.461Z,97.49
2024-01-24T08:08:58.201Z,97.80
2024-01-24T08:11:26.105Z,96.55
2024-01-24T08:13:52.955Z,97.92
2024-01-24T08:16:20.171Z,98.58
2024-01-24T08:18:47.018Z,97.71
2024-01-24T08:21:14.241Z,97.57
2024-01-24T08:23:47.064Z,96.90
2024-01-24T08:26:18.051Z,96.49
2024-01-24T08:28:44.794Z,96.62
2024-01-24T08:31:12.392Z,96.29
2024-01-24T08:33:39.103Z,96.52
2024-01-24T08:36:06.433Z,96.17
2024-01-24T08:38:32.976Z,96.95
2024-01-24T08:40:59.614Z,96.44
2024-01-24T08:43:26.112Z,95.90
2024-01-24T08:45:52.814Z,96.72
2024-01-24T08:48:19.945Z,95.12
2024-01-24T08:50:46.641Z,96.26
2024-01-24T08:53:13.702Z,95.64
2024-01-24T08:55:40.456Z,95.66
2024-01-24T08:58:07.269Z,95.46
2024-01-24T09:00:34.116Z,95.66
2024-01-24T09:03:00.830Z,95.39
2024-01-24T09:05:27.715Z,96.08
2024-01-24T09:07:54.300Z,95.39
2024-01-24T09:10:21.449Z,95.50
2024-01-24T09:12:48.250Z,94.72
2024-01-24T09:15:15.222Z,93.62
2024-01-24T09:17:41.922Z,92.24
2024-01-24T09:20:09.376Z,92.97
2024-01-24T09:22:36.283Z,91.89
2024-01-24T09:25:06.595Z,93.22
2024-01-24T09:27:35.274Z,91.23
2024-01-24T09:30:01.899Z,91.52
2024-01-24T09:32:28.590Z,90.92
2024-01-24T09:34:55.849Z,90.23
2024-01-24T09:37:22.687Z,91.47
2024-01-24T09:39:51.229Z,91.55
2024-01-24T09:42:23.804Z,91.54
2024-01-24T09:44:51.665Z,92.47
2024-01-24T09:47:20.901Z,92.27
2024-01-24T09:49:47.777Z,93.83
2024-01-24T09:52:18.096Z,92.64
2024-01-24T09:54:46.600Z,92.20
2024-01-24T09:57:14.181Z,92.28
2024-01-24T09:59:40.877Z,92.66
2024-01-24T10:02:07.556Z,91.90
2024-01-24T10:04:38.854Z,91.38
2024-01-24T10:07:08.861Z,92.44
2024-01-24T10:09:35.604Z,92.15
2024-01-24T10:12:02.437Z,91.85
2024-01-24T10:14:31.901Z,91.63
2024-01-24T10:16:58.917Z,91.51
2024-01-24T10:19:26.411Z,91.76
2024-01-24T10:21:53.766Z,91.76
2024-01-24T10:24:20.667Z,89.42
2024-01-24T10:26:47.899Z,90.42
2024-01-24T10:29:15.370Z,91.14
2024-01-24T10:31:43.934Z,89.79
2024-01-24T10:34:12.144Z,90.48
2024-01-24T10:36:43.500Z,90.68
2024-01-24T10:39:14.984Z,90.35
2024-01-24T10:41:44.165Z,89.79
2024-01-24T10:44:15.565Z,88.64
2024-01-24T10:46:42.422Z,88.86
2024-01-24T10:49:13.372Z,89.56
2024-01-24T10:51:41.007Z,90.16
2024-01-24T17:19:26.000Z,94.16
2024-01-24T17:21:52.820Z,93.76
2024-01-24T17:24:19.706Z,94.30
2024-01-24T17:26:46.228Z,93.24
2024-01-24T17:29:12.768Z,93.68
2024-01-24T17:31:39.761Z,93.64
2024-01-24T17:34:06.419Z,93.41
2024-01-24T17:36:33.170Z,93.72
2024-01-24T17:38:59.672Z,93.78
2024-01-24T17:41:26.465Z,94.01
2024-01-24T17:43:53.026Z,93.52
2024-01-24T17:46:19.596Z,93.37
2024-01-24T17:48:46.684Z,92.74
2024-01-24T17:51:14.952Z,93.66
2024-01-24T17:53:41.489Z,92.86
2024-01-24T17:56:08.050Z,93.08
2024-01-24T17:58:36.042Z,93.82
2024-01-24T18:01:04.360Z,93.38
2024-01-24T18:03:31.217Z,93.40
2024-01-24T18:05:57.828Z,93.36
2024-01-24T18:08:24.566Z,93.70
2024-01-24T18:10:51.163Z,93.00
2024-01-24T18:13:17.684Z,93.15
2024-01-24T18:15:44.318Z,93.57
2024-01-24T18:18:11.229Z,93.85
2024-01-24T18:20:37.835Z,93.59
2024-01-24T18:23:04.698Z,93.99
2024-01-24T18:25:31.449Z,93.63
2024-01-24T18:27:57.944Z,93.67
2024-01-24T18:30:24.714Z,93.96
2024-01-24T18:32:51.485Z,94.16
2024-01-24T18:35:18.361Z,94.18
2024-01-24T18:37:44.993Z,94.37
2024-01-24T18:40:12.262Z,94.72
2024-01-24T18:42:41.666Z,94.06
2024-01-24T18:45:11.192Z,94.19
2024-01-24T18:47:37.888Z,94.12
2024-01-24T18:50:05.366Z,94.50
2024-01-24T18:52:31.870Z,94.68
2024-01-24T18:54:58.815Z,94.33
2024-01-24T18:57:28.342Z,94.50
2024-01-24T18:59:54.927Z,94.60
2024-01-24T19:02:21.746Z,94.77
2024-01-24T19:04:48.756Z,94.86
2024-01-24T19:07:15.710Z,94.66
2024-01-24T19:09:43.484Z,94.88
2024-01-24T19:12:11.049Z,95.52
2024-01-24T19:14:41.162Z,95.53
2024-01-24T19:17:07.848Z,95.37
2024-01-24T19:19:34.742Z,95.20
2024-01-24T19:22:01.770Z,95.36
2024-01-24T19:24:28.306Z,96.03
2024-01-24T19:26:54.960Z,95.99
2024-01-24T19:29:21.683Z,95.61
2024-01-24T19:31:50.428Z,95.43
2024-01-24T19:34:20.233Z,95.52
2024-01-24T19:36:46.844Z,95.64
2024-01-24T19:39:14.973Z,95.85
2024-01-24T19:41:41.610Z,95.67
2024-01-24T19:44:08.351Z,95.28
2024-01-24T19:46:34.989Z,95.85
2024-01-24T19:49:01.684Z,95.70
2024-01-24T19:51:29.044Z,96.36
2024-01-24T19:53:56.343Z,95.90
2024-01-24T19:56:22.907Z,95.85
2024-01-24T19:58:49.632Z,95.97
2024-01-24T20:01:16.318Z,95.75
2024-01-24T20:03:42.937Z,95.38
2024-01-24T20:06:09.487Z,95.43
2024-01-24T20:08:36.133Z,95.59
2024-01-24T20:11:02.740Z,95.49
2024-01-24T20:13:31.678Z,95.89
2024-01-24T20:15:59.170Z,95.81
2024-01-24T20:18:26.139Z,96.61
2024-01-24T20:20:52.952Z,96.26
2024-01-24T20:23:19.508Z,96.28
2024-01-24T20:25:46.059Z,95.91
2024-01-24T20:28:12.686Z,96.30
2024-01-24T20:30:40.853Z,96.03
2024-01-24T20:33:07.505Z,96.42
2024-01-24T20:35:34.068Z,96.31
2024-01-24T20:38:01.320Z,95.75
2024-01-24T20:40:27.827Z,96.21
2024-01-24T20:42:54.644Z,96.00
2024-01-24T20:45:21.208Z,96.34
2024-01-24T20:47:49.101Z,95.32
2024-01-24T20:50:19.493Z,95.97
2024-01-24T20:52:46.203Z,95.76
2024-01-24T20:55:12.807Z,95.66
2024-01-24T20:57:39.449Z,95.97
2024-01-24T21:00:09.854Z,95.17
2024-01-24T21:02:36.678Z,95.32
2024-01-24T21:05:03.747Z,94.79
2024-01-24T21:07:30.607Z,94.64
2024-01-24T21:09:57.837Z,94.68
2024-01-24T21:12:24.369Z,94.85
2024-01-24T21:14:51.175Z,95.08
2024-01-24T21:17:18.361Z,95.67
2024-01-24T21:19:45.020Z,95.11
2024-01-24T21:22:11.753Z,95.33
2024-01-24T21:24:38.476Z,94.86
2024-01-24T21:27:05.361Z,94.67
2024-01-24T21:29:31.986Z,94.69
2024-01-24T21:31:59.558Z,94.67
2024-01-24T21:34:26.372Z,94.63
2024-01-24T21:36:53.394Z,95.07
2024-01-24T21:39:21.038Z,94.50
2024-01-24T21:41:47.590Z,95.07
2024-01-24T21:44:14.107Z,95.33
2024-01-24T21:46:40.996Z,95.53
2024-01-24T21:49:08.496Z,95.24
2024-01-24T21:51:35.049Z,95.57
2024-01-24T21:54:01.655Z,95.32
2024-01-24T21:56:28.154Z,94.79
2024-01-24T21:58:56.302Z,95.37
2024-01-24T22:01:24.372Z,95.31
2024-01-24T22:03:51.993Z,95.13
2024-01-24T22:06:18.787Z,94.86
2024-01-24T22:08:46.013Z,95.30
2024-01-24T22:11:14.893Z,95.17
2024-01-24T22:13:41.521Z,95.51
2024-01-24T22:16:08.309Z,95.57
2024-01-24T22:18:40.936Z,95.47
2024-01-24T22:21:14.118Z,95.33
2024-01-24T22:23:40.768Z,95.66
2024-01-24T22:26:07.461Z,95.57
2024-01-24T22:28:33.972Z,96.02
2024-01-24T22:31:00.528Z,94.96
2024-01-24T22:33:27.284Z,95.45
2024-01-24T22:35:54.171Z,95.01
2024-01-24T22:38:20.827Z,95.77
2024-01-24T22:40:47.374Z,95.17
2024-01-24T22:43:14.011Z,95.72
2024-01-24T22:45:40.735Z,95.60
2024-01-24T22:48:07.909Z,95.80
2024-01-24T22:50:34.555Z,95.78
2024-01-24T22:53:01.211Z,95.91
2024-01-24T22:55:27.983Z,95.48
2024-01-24T22:57:54.717Z,96.21
2024-01-24T23:00:22.835Z,96.41
2024-01-24T23:02:49.502Z,95.89
2024-01-24T23:05:17.130Z,96.36
2024-01-24T23:07:44.113Z,95.88
2024-01-24T23:10:11.445Z,96.46
2024-01-24T23:12:38.723Z,96.16
2024-01-24T23:15:06.401Z,96.35
2024-01-24T23:17:33.345Z,96.64
2024-01-24T23:20:00.032Z,96.49
2024-01-24T23:22:27.810Z,96.72
2024-01-24T23:24:54.608Z,96.60
2024-01-24T23:27:21.195Z,96.87
2024-01-24T23:29:47.721Z,96.37
2024-01-24T23:32:14.370Z,96.73
2024-01-24T23:34:41.009Z,96.65
2024-01-24T23:37:07.656Z,96.73
2024-01-24T23:39:34.290Z,96.55
2024-01-24T23:42:00.995Z,96.87
2024-01-24T23:44:27.466Z,96.06
2024-01-24T23:46:53.991Z,97.13
2024-01-24T23:49:20.704Z,97.25
2024-01-24T23:51:47.566Z,96.90
2024-01-24T23:54:14.299Z,97.07
2024-01-24T23:56:41.223Z,97.05
2024-01-24T23:59:09.081Z,96.69
